createdAt,value
2017-11-15T00:00:25.689Z,47.13
2017-11-15T00:02:59.534Z,48.83
2017-11-15T00:05:36.357Z,57.78
2017-11-15T00:08:13.913Z,56.42
2017-11-15T00:10:54.449Z,49.83
2017-11-15T00:13:34.476Z,57.28
2017-11-15T00:16:12.906Z,56.08
2017-11-15T00:18:47.017Z,51.58
2017-11-15T00:21:24.267Z,53.03
2017-11-15T00:24:06.034Z,53.95
2017-11-15T00:26:40.118Z,48.55
2017-11-15T00:29:21.292Z,47.90
2017-11-15T00:32:00.242Z,60.53
2017-11-15T00:34:37.576Z,56.33
2017-11-15T00:37:15.760Z,50.20
2017-11-15T00:39:54.685Z,61.83
2017-11-15T00:42:36.207Z,57.88
2017-11-15T00:45:18.568Z,66.65
2017-11-15T00:47:51.913Z,53.85
2017-11-15T00:50:30.302Z,58.25
2017-11-15T00:53:09.711Z,52.65
2017-11-15T00:55:48.537Z,51.15
2017-11-15T00:58:20.831Z,58.33
2017-11-15T01:00:58.024Z,57.33
2017-11-15T01:03:31.369Z,53.47
2017-11-15T01:06:10.603Z,45.17
2017-11-15T01:08:49.624Z,60.67
2017-11-15T01:11:23.009Z,60.42
2017-11-15T01:14:01.397Z,54.65
2017-11-15T01:16:40.434Z,57.97
2017-11-15T01:19:17.600Z,50.60
2017-11-15T01:21:56.539Z,54.10
2017-11-15T01:24:35.622Z,58.40
2017-11-15T01:27:16.787Z,56.00
2017-11-15T01:29:54.547Z,56.53
2017-11-15T01:32:32.278Z,51.35
2017-11-15T01:35:09.160Z,50.90
2017-11-15T01:37:51.597Z,51.05
2017-11-15T01:40:29.420Z,55.58
2017-11-15T01:43:08.366Z,47.53
2017-11-15T01:45:46.540Z,51.05
2017-11-15T01:48:24.169Z,52.42
2017-11-15T01:51:03.039Z,45.33
2017-11-15T01:53:41.529Z,48.10
2017-11-15T01:56:20.181Z,45.72
2017-11-15T01:58:59.727Z,45.53
2017-11-15T02:01:40.428Z,49.67
2017-11-15T02:04:18.020Z,54.75
2017-11-15T02:06:55.593Z,48.85
2017-11-15T02:09:37.147Z,40.22
2017-11-15T02:12:17.610Z,45.42
2017-11-15T02:14:56.526Z,43.72
2017-11-15T02:17:34.108Z,45.25
2017-11-15T02:20:12.376Z,55.33
2017-11-15T02:22:50.777Z,53.50
2017-11-15T02:25:28.228Z,46.53
2017-11-15T02:28:06.459Z,53.55
2017-11-15T02:30:44.710Z,46.78
2017-11-15T02:33:24.264Z,58.58
2017-11-15T02:35:59.751Z,51.13
2017-11-15T02:38:32.007Z,64.97
2017-11-15T02:41:08.732Z,49.35
2017-11-15T02:43:46.262Z,55.45
2017-11-15T02:46:24.830Z,47.88
2017-11-15T02:49:02.209Z,43.72
2017-11-15T02:51:47.107Z,53.55
2017-11-15T02:54:20.015Z,55.38
2017-11-15T02:57:00.987Z,54.30
2017-11-15T02:59:39.530Z,51.28
2017-11-15T03:02:18.653Z,44.53
2017-11-15T03:04:56.096Z,56.45
2017-11-15T03:07:35.112Z,49.60
2017-11-15T03:10:09.679Z,46.58
2017-11-15T03:12:42.020Z,49.38
2017-11-15T03:15:20.925Z,50.00
2017-11-15T03:18:01.720Z,51.22
2017-11-15T03:20:38.498Z,42.67
2017-11-15T03:23:16.500Z,39.00
2017-11-15T03:25:45.650Z,45.70
2017-11-15T03:28:26.458Z,46.70
2017-11-15T03:31:03.791Z,42.95
2017-11-15T03:33:45.894Z,41.85
2017-11-15T03:36:24.644Z,45.15
2017-11-15T03:39:01.738Z,39.17
2017-11-15T03:41:40.706Z,39.03
2017-11-15T03:44:17.470Z,50.25
2017-11-15T03:46:55.403Z,41.05
2017-11-15T03:49:35.877Z,41.85
2017-11-15T03:52:13.375Z,41.28
2017-11-15T03:54:51.945Z,39.00
2017-11-15T03:57:28.825Z,41.13
2017-11-15T04:00:07.105Z,40.08
2017-11-15T04:02:44.597Z,48.30
2017-11-15T04:05:24.232Z,45.75
2017-11-15T04:07:58.089Z,39.47
2017-11-15T04:10:38.278Z,43.33
2017-11-15T04:13:14.867Z,46.45
2017-11-15T04:15:55.194Z,38.90
2017-11-15T04:18:33.142Z,44.85
2017-11-15T04:21:13.706Z,41.78
2017-11-15T04:23:52.593Z,40.90
2017-11-15T04:26:31.259Z,39.83
2017-11-15T04:29:04.540Z,41.42
2017-11-15T04:31:34.992Z,40.15
2017-11-15T04:34:12.749Z,40.90
2017-11-15T04:36:52.667Z,42.80
2017-11-15T04:39:25.693Z,40.40
2017-11-15T04:42:06.287Z,39.10
2017-11-15T04:44:47.638Z,43.83
2017-11-15T04:47:27.389Z,42.50
2017-11-15T04:50:05.862Z,56.15
2017-11-15T04:52:43.506Z,41.42
2017-11-15T04:55:21.074Z,43.30
2017-11-15T04:58:00.712Z,45.67
2017-11-15T05:00:39.320Z,48.40
2017-11-15T05:03:08.350Z,45.33
2017-11-15T05:05:37.603Z,45.95
2017-11-15T05:08:15.065Z,45.65
2017-11-15T05:10:53.627Z,45.28
2017-11-15T05:13:30.721Z,43.20
2017-11-15T05:16:10.950Z,47.58
2017-11-15T05:18:51.862Z,40.72
2017-11-15T05:21:31.273Z,48.83
2017-11-15T05:24:00.976Z,43.60
2017-11-15T05:26:40.026Z,37.88
2017-11-15T05:29:18.725Z,43.22
2017-11-15T05:31:55.642Z,47.45
2017-11-15T05:34:35.691Z,36.65
2017-11-15T05:37:13.590Z,45.97
2017-11-15T05:39:51.417Z,44.13
2017-11-15T05:42:30.949Z,43.53
2017-11-15T05:45:08.273Z,40.60
2017-11-15T05:47:46.429Z,42.72
2017-11-15T05:50:25.575Z,38.10
2017-11-15T05:53:02.794Z,37.13
2017-11-15T05:55:41.251Z,44.70
2017-11-15T05:58:18.843Z,47.55
2017-11-15T06:00:57.665Z,41.13
2017-11-15T06:03:37.573Z,44.97
2017-11-15T06:06:09.827Z,38.72
2017-11-15T06:08:47.398Z,41.15
2017-11-15T06:11:27.008Z,42.95
2017-11-15T06:14:03.875Z,43.45
2017-11-15T06:16:42.223Z,42.67
2017-11-15T06:19:23.567Z,39.88
2017-11-15T06:22:02.640Z,37.30
2017-11-15T06:24:40.142Z,39.20
2017-11-15T06:27:23.671Z,45.60
2017-11-15T06:30:02.350Z,43.47
2017-11-15T06:32:43.243Z,40.92
2017-11-15T06:35:22.423Z,41.45
2017-11-15T06:37:59.472Z,46.72
2017-11-15T06:40:38.173Z,47.35
2017-11-15T06:43:19.360Z,44.15
2017-11-15T06:46:00.491Z,41.85
2017-11-15T06:48:41.625Z,40.42
2017-11-15T06:51:21.203Z,39.50
2017-11-15T06:53:59.704Z,43.05
2017-11-15T06:56:37.628Z,40.53
2017-11-15T06:59:16.323Z,35.63
2017-11-15T07:01:53.860Z,32.83
2017-11-15T07:04:32.898Z,35.45
2017-11-15T07:07:07.734Z,35.58
2017-11-15T07:09:38.339Z,40.95
2017-11-15T07:12:21.010Z,38.88
2017-11-15T07:14:53.973Z,41.28
2017-11-15T07:17:32.265Z,39.72
2017-11-15T07:20:02.556Z,32.78
2017-11-15T07:22:40.898Z,38.03
2017-11-15T07:25:20.368Z,38.10
2017-11-15T07:27:52.662Z,35.78
2017-11-15T07:30:31.019Z,40.53
2017-11-15T07:33:09.159Z,38.72
2017-11-15T07:35:44.711Z,39.72
2017-11-15T07:38:18.166Z,41.75
2017-11-15T07:40:57.488Z,37.88
2017-11-15T07:43:35.257Z,39.42
2017-11-15T07:46:13.202Z,43.70
2017-11-15T07:48:51.389Z,36.80
2017-11-15T07:51:30.744Z,41.15
2017-11-15T07:54:08.911Z,46.20
2017-11-15T07:56:48.067Z,38.65
2017-11-15T07:59:22.625Z,46.70
2017-11-15T08:01:59.556Z,52.62
2017-11-15T08:04:37.722Z,42.35
2017-11-15T08:07:13.399Z,48.42
2017-11-15T08:09:52.832Z,43.33
2017-11-15T08:12:26.097Z,40.12
2017-11-15T08:15:07.776Z,52.72
2017-11-15T08:17:47.920Z,44.30
2017-11-15T08:20:20.469Z,45.95
2017-11-15T08:22:54.287Z,46.90
2017-11-15T08:25:33.391Z,46.88
2017-11-15T08:28:10.214Z,42.00
2017-11-15T08:30:44.491Z,47.17
2017-11-15T08:33:17.574Z,44.13
2017-11-15T08:35:57.130Z,40.95
2017-11-15T08:38:36.120Z,46.20
2017-11-15T08:41:09.418Z,45.50
2017-11-15T08:43:50.089Z,43.70
2017-11-15T08:46:23.536Z,41.10
2017-11-15T08:49:03.902Z,39.50
2017-11-15T08:51:41.239Z,36.33
2017-11-15T08:54:19.714Z,34.50
2017-11-15T08:56:58.282Z,37.40
2017-11-15T08:59:31.113Z,31.25
2017-11-15T09:02:04.648Z,35.97
2017-11-15T09:04:47.905Z,28.58
2017-11-15T09:07:21.091Z,33.83
2017-11-15T09:10:00.112Z,28.80
2017-11-15T09:12:43.263Z,23.00
2017-11-15T09:15:21.816Z,29.25
2017-11-15T09:18:01.382Z,26.60
2017-11-15T09:20:34.794Z,31.02
2017-11-15T09:23:16.265Z,28.05
2017-11-15T09:25:54.298Z,32.42
2017-11-15T09:28:36.462Z,39.08
2017-11-15T09:31:16.816Z,36.03
2017-11-15T09:33:54.689Z,28.25
2017-11-15T09:36:33.388Z,28.38
2017-11-15T09:39:12.128Z,27.75
2017-11-15T09:41:52.798Z,33.97
2017-11-15T09:44:28.000Z,28.80
2017-11-15T09:47:06.861Z,30.83
2017-11-15T09:49:48.884Z,37.55
2017-11-15T09:52:30.351Z,27.62
2017-11-15T09:55:09.087Z,27.80
2017-11-15T09:57:50.135Z,29.45
2017-11-15T10:00:31.260Z,29.70
2017-11-15T10:03:04.502Z,30.23
2017-11-15T10:05:45.177Z,36.78
2017-11-15T10:08:25.676Z,28.83
2017-11-15T10:11:03.351Z,32.55
2017-11-15T10:13:36.673Z,32.15
2017-11-15T10:16:16.731Z,32.22
2017-11-15T10:18:56.876Z,30.48
2017-11-15T10:21:34.102Z,32.00
2017-11-15T10:24:12.458Z,24.80
2017-11-15T10:26:45.672Z,27.10
2017-11-15T10:29:19.115Z,30.33
2017-11-15T10:31:52.099Z,26.33
2017-11-15T10:34:31.568Z,37.88
2017-11-15T10:37:10.602Z,29.10
2017-11-15T10:39:52.317Z,31.30
2017-11-15T10:42:25.423Z,29.27
2017-11-15T10:45:05.802Z,29.73
2017-11-15T10:47:50.049Z,37.28
2017-11-15T10:50:27.971Z,26.37
2017-11-15T10:53:08.423Z,33.45
2017-11-15T10:55:41.949Z,27.10
2017-11-15T10:58:21.006Z,31.90
2017-11-15T11:00:59.821Z,28.52
2017-11-15T11:03:39.725Z,23.55
2017-11-15T11:06:19.218Z,29.23
2017-11-15T11:08:59.633Z,24.58
2017-11-15T11:11:34.087Z,29.42
2017-11-15T11:14:12.797Z,27.33
2017-11-15T11:16:53.438Z,23.40
2017-11-15T11:19:34.563Z,24.52
2017-11-15T11:22:12.301Z,25.08
2017-11-15T11:24:51.373Z,21.87
2017-11-15T11:27:29.211Z,21.58
2017-11-15T11:30:08.063Z,40.67
2017-11-15T11:32:51.473Z,21.85
2017-11-15T11:35:31.433Z,18.52
2017-11-15T11:38:10.376Z,21.17
2017-11-15T11:40:45.091Z,21.95
2017-11-15T11:43:24.532Z,23.33
2017-11-15T11:46:02.960Z,29.02
2017-11-15T11:48:49.279Z,22.20
2017-11-15T11:51:22.287Z,26.55
2017-11-15T11:54:01.645Z,26.10
2017-11-15T11:56:39.305Z,26.95
2017-11-15T11:59:20.788Z,24.02
2017-11-15T12:01:53.047Z,24.48
2017-11-15T12:04:30.835Z,23.67
2017-11-15T12:07:11.270Z,24.40
2017-11-15T12:09:49.428Z,28.50
2017-11-15T12:12:28.745Z,33.67
2017-11-15T12:15:11.267Z,27.90
2017-11-15T12:17:44.933Z,26.52
2017-11-15T12:20:19.351Z,31.08
2017-11-15T12:22:56.387Z,27.05
2017-11-15T12:25:29.831Z,25.17
2017-11-15T12:28:09.339Z,32.72
2017-11-15T12:30:47.996Z,37.88
2017-11-15T12:33:29.738Z,36.13
2017-11-15T12:36:14.639Z,25.42
2017-11-15T12:38:54.117Z,25.17
2017-11-15T12:41:29.092Z,36.97
2017-11-15T12:44:08.133Z,30.40
2017-11-15T12:46:42.500Z,30.60
2017-11-15T12:49:15.139Z,32.50
2017-11-15T12:51:50.269Z,27.00
2017-11-15T12:54:34.561Z,42.13
2017-11-15T12:57:13.912Z,32.45
2017-11-15T12:59:51.716Z,30.92
2017-11-15T13:02:30.654Z,30.55
2017-11-15T13:05:10.218Z,25.10
2017-11-15T13:07:52.488Z,27.77
2017-11-15T13:10:25.649Z,31.35
2017-11-15T13:13:05.288Z,20.48
2017-11-15T13:15:39.375Z,25.67
2017-11-15T13:18:12.021Z,23.00
2017-11-15T13:20:45.378Z,20.92
2017-11-15T13:23:27.160Z,25.25
2017-11-15T13:26:08.166Z,19.55
2017-11-15T13:28:43.049Z,19.80
2017-11-15T13:31:22.242Z,15.40
2017-11-15T13:33:56.608Z,18.90
2017-11-15T13:36:29.708Z,19.00
2017-11-15T13:39:03.350Z,22.60
2017-11-15T13:41:41.773Z,25.62
2017-11-15T13:44:21.951Z,15.20
2017-11-15T13:47:03.511Z,12.88
2017-11-15T13:49:36.823Z,12.85
2017-11-15T13:52:17.266Z,19.42
2017-11-15T13:54:59.468Z,14.90
2017-11-15T13:57:38.166Z,14.80
2017-11-15T14:00:18.762Z,15.23
2017-11-15T14:02:57.661Z,15.10
2017-11-15T14:05:36.697Z,16.27
2017-11-15T14:08:10.148Z,21.23
2017-11-15T14:10:49.131Z,17.35
2017-11-15T14:13:22.051Z,16.58
2017-11-15T14:15:57.081Z,22.48
2017-11-15T14:18:37.558Z,22.52
2017-11-15T14:21:17.605Z,21.15
2017-11-15T14:23:56.712Z,20.05
2017-11-15T14:26:30.602Z,24.87
2017-11-15T14:29:08.330Z,22.75
2017-11-15T14:31:52.316Z,30.35
2017-11-15T14:34:30.749Z,26.37
2017-11-15T14:37:05.480Z,20.35
2017-11-15T14:39:40.358Z,18.35
2017-11-15T14:42:15.942Z,23.27
2017-11-15T14:44:55.250Z,19.87
2017-11-15T14:47:34.386Z,21.42
2017-11-15T14:50:16.060Z,28.95
2017-11-15T14:52:54.618Z,17.87
2017-11-15T14:55:33.858Z,21.17
2017-11-15T14:58:09.421Z,18.87
2017-11-15T15:00:49.121Z,25.05
2017-11-15T15:03:30.055Z,22.20
2017-11-15T15:06:09.813Z,28.27
2017-11-15T15:08:49.149Z,37.97
2017-11-15T15:11:27.694Z,58.40
2017-11-15T15:14:03.699Z,51.92
2017-11-15T15:16:42.576Z,53.40
2017-11-15T15:19:23.154Z,53.50
2017-11-15T15:21:56.711Z,67.47
2017-11-15T15:24:39.455Z,60.70
2017-11-15T15:27:19.930Z,74.30
2017-11-15T15:29:54.233Z,78.10
2017-11-15T15:32:34.411Z,87.30
2017-11-15T15:35:14.613Z,94.47
2017-11-15T15:37:50.379Z,85.30
2017-11-15T15:40:23.695Z,85.82
2017-11-15T15:43:05.414Z,100.87
2017-11-15T15:45:44.908Z,83.18
2017-11-15T15:48:18.350Z,70.95
2017-11-15T15:50:59.238Z,82.65
2017-11-15T15:53:31.712Z,86.40
2017-11-15T15:56:10.909Z,93.78
2017-11-15T15:58:50.678Z,93.75
2017-11-15T16:01:25.047Z,88.07
2017-11-15T16:03:58.949Z,110.53
2017-11-15T16:06:33.889Z,91.72
2017-11-15T16:09:07.286Z,95.72
2017-11-15T16:11:47.207Z,101.82
2017-11-15T16:14:22.000Z,104.22
2017-11-15T16:16:54.842Z,111.72
2017-11-15T16:19:28.680Z,113.85
2017-11-15T16:22:06.673Z,122.50
2017-11-15T16:24:40.417Z,98.40
2017-11-15T16:27:13.763Z,108.22
2017-11-15T16:29:47.197Z,100.80
2017-11-15T16:32:26.395Z,118.07
2017-11-15T16:35:05.030Z,116.22
2017-11-15T16:37:39.995Z,119.35
2017-11-15T16:40:21.145Z,129.32
2017-11-15T16:43:01.804Z,119.68
2017-11-15T16:45:39.150Z,137.93
2017-11-15T16:48:17.234Z,127.43
2017-11-15T16:50:50.794Z,153.35
2017-11-15T16:53:28.355Z,126.97
2017-11-15T16:56:07.792Z,137.43
2017-11-15T16:58:46.619Z,115.35
2017-11-15T17:01:25.550Z,141.73
2017-11-15T17:03:58.979Z,132.70
2017-11-15T17:06:32.205Z,136.32
2017-11-15T17:09:13.155Z,119.97
2017-11-15T17:11:50.365Z,114.97
2017-11-15T17:14:29.826Z,115.50
2017-11-15T17:17:07.900Z,130.57
2017-11-15T17:19:40.930Z,115.50
2017-11-15T17:22:20.719Z,125.93
2017-11-15T17:24:55.804Z,134.52
2017-11-15T17:27:34.116Z,126.78
2017-11-15T17:30:13.475Z,132.77
2017-11-15T17:32:52.526Z,129.48
2017-11-15T17:35:30.926Z,116.28
2017-11-15T17:38:12.839Z,110.65
2017-11-15T17:40:51.549Z,118.65
2017-11-15T17:43:29.875Z,96.95
2017-11-15T17:46:03.769Z,110.60
2017-11-15T17:48:36.979Z,113.72
2017-11-15T17:51:16.310Z,110.97
2017-11-15T17:56:38.051Z,120.37
2017-11-15T17:59:16.749Z,107.60
2017-11-15T18:01:57.501Z,112.40
2017-11-15T18:04:35.563Z,113.20
2017-11-15T18:07:15.905Z,120.93
2017-11-15T18:09:48.524Z,130.07
2017-11-15T18:12:27.789Z,124.00
2017-11-15T18:15:01.328Z,130.85
2017-11-15T18:17:36.177Z,120.45
2017-11-15T18:20:09.369Z,135.73
2017-11-15T18:22:44.297Z,120.57
2017-11-15T18:25:25.239Z,110.93
2017-11-15T18:28:06.810Z,129.12
2017-11-15T18:30:40.172Z,111.18
2017-11-15T18:33:20.525Z,89.03
2017-11-15T18:35:59.738Z,91.32
2017-11-15T18:38:40.339Z,96.28
2017-11-15T18:41:19.354Z,99.53
2017-11-15T18:43:55.994Z,91.53
2017-11-15T18:46:37.351Z,100.03
2017-11-15T18:49:13.219Z,102.87
2017-11-15T18:51:49.133Z,100.28
2017-11-15T18:54:30.597Z,143.15
2017-11-15T18:57:10.020Z,106.18
2017-11-15T18:59:50.259Z,107.43
2017-11-15T19:02:30.096Z,119.45
2017-11-15T19:05:03.115Z,96.65
2017-11-15T19:07:41.510Z,107.80
2017-11-15T19:10:19.846Z,98.57
2017-11-15T19:12:58.613Z,99.53
2017-11-15T19:15:38.286Z,94.55
2017-11-15T19:18:18.051Z,89.13
2017-11-15T19:21:00.216Z,97.70
2017-11-15T19:23:38.952Z,79.72
2017-11-15T19:26:18.141Z,79.87
2017-11-15T19:28:56.870Z,90.10
2017-11-15T19:31:38.113Z,92.50
2017-11-15T19:34:16.355Z,104.00
2017-11-15T19:36:54.850Z,61.03
2017-11-15T19:39:34.659Z,76.37
2017-11-15T19:42:12.015Z,78.50
2017-11-15T19:44:52.601Z,59.58
2017-11-15T19:47:26.049Z,70.70
2017-11-15T19:50:05.139Z,80.95
2017-11-15T19:52:45.489Z,71.87
2017-11-15T19:55:18.572Z,54.13
2017-11-15T19:57:56.818Z,63.75
2017-11-15T20:00:34.750Z,65.35
2017-11-15T20:03:13.127Z,71.30
2017-11-15T20:05:53.839Z,76.20
2017-11-15T20:08:31.616Z,66.60
2017-11-15T20:11:11.372Z,72.62
2017-11-15T20:13:49.477Z,68.37
2017-11-15T20:16:26.982Z,66.62
2017-11-15T20:19:07.750Z,68.03
2017-11-15T20:21:45.192Z,57.50
2017-11-15T20:24:24.915Z,63.50
2017-11-15T20:27:04.974Z,66.82
2017-11-15T20:29:44.125Z,79.93
2017-11-15T20:32:25.109Z,62.85
2017-11-15T20:35:04.532Z,66.10
2017-11-15T20:37:38.387Z,56.85
2017-11-15T20:40:16.121Z,65.55
2017-11-15T20:42:55.002Z,59.00
2017-11-15T20:45:28.294Z,49.63
2017-11-15T20:48:06.400Z,59.05
2017-11-15T20:50:44.919Z,53.40
2017-11-15T20:53:22.755Z,45.50
2017-11-15T20:55:58.289Z,53.63
2017-11-15T20:58:30.418Z,50.05
2017-11-15T21:01:08.286Z,54.45
2017-11-15T21:03:50.887Z,52.58
2017-11-15T21:06:31.271Z,55.08
2017-11-15T21:09:04.113Z,53.47
2017-11-15T21:11:38.088Z,49.80
2017-11-15T21:14:17.594Z,45.72
2017-11-15T21:16:56.614Z,47.78
2017-11-15T21:19:30.594Z,47.22
2017-11-15T21:22:03.360Z,40.53
2017-11-15T21:24:42.467Z,37.65
2017-11-15T21:27:24.683Z,36.95
2017-11-15T21:30:02.066Z,38.15
2017-11-15T21:32:40.804Z,34.75
2017-11-15T21:35:20.574Z,36.45
2017-11-15T21:37:59.194Z,32.63
2017-11-15T21:40:37.396Z,35.13
2017-11-15T21:43:14.395Z,35.90
2017-11-15T21:45:52.444Z,41.30
2017-11-15T21:48:33.069Z,56.97
2017-11-15T21:51:12.802Z,38.28
2017-11-15T21:53:46.765Z,39.40
2017-11-15T21:56:20.382Z,43.55
2017-11-15T21:58:55.132Z,41.22
2017-11-15T22:01:28.136Z,40.70
2017-11-15T22:04:02.595Z,44.80
2017-11-15T22:06:41.526Z,40.78
2017-11-15T22:09:22.836Z,38.40
2017-11-15T22:11:58.131Z,42.13
2017-11-15T22:14:34.082Z,55.78
2017-11-15T22:17:08.391Z,38.72
2017-11-15T22:19:43.716Z,43.87
2017-11-15T22:22:17.609Z,53.75
2017-11-15T22:24:56.407Z,41.05
2017-11-15T22:27:35.580Z,36.95
2017-11-15T22:30:13.640Z,37.42
2017-11-15T22:32:51.044Z,41.85
2017-11-15T22:35:24.991Z,49.97
2017-11-15T22:37:58.754Z,42.00
2017-11-15T22:40:37.546Z,46.40
2017-11-15T22:43:15.946Z,38.15
2017-11-15T22:45:53.288Z,41.00
2017-11-15T22:48:32.706Z,43.15
2017-11-15T22:51:10.329Z,38.95
2017-11-15T22:53:43.032Z,37.58
2017-11-15T22:56:17.324Z,39.75
2017-11-15T22:58:50.000Z,35.97
2017-11-15T23:01:29.662Z,35.78
2017-11-15T23:04:09.499Z,36.70
2017-11-15T23:06:45.096Z,45.67
2017-11-15T23:09:17.916Z,48.85
2017-11-15T23:11:58.095Z,37.20
2017-11-15T23:14:36.195Z,44.58
2017-11-15T23:17:14.186Z,42.72
2017-11-15T23:19:47.155Z,43.08
2017-11-15T23:22:25.639Z,48.90
2017-11-15T23:25:04.220Z,41.22
2017-11-15T23:27:36.518Z,37.35
2017-11-15T23:30:14.033Z,41.85
2017-11-15T23:32:52.772Z,41.80
2017-11-15T23:35:31.432Z,49.15
2017-11-15T23:38:06.125Z,48.03
2017-11-15T23:40:38.288Z,52.85
2017-11-15T23:43:15.056Z,50.67
2017-11-15T23:45:53.907Z,63.45
2017-11-15T23:48:33.080Z,50.20
2017-11-15T23:51:10.752Z,59.35
2017-11-15T23:53:45.695Z,50.00
2017-11-15T23:56:18.256Z,51.88
2017-11-15T23:58:52.040Z,57.30
